KMVN/MVN METAR and TAF weather

Enter ICAO airport designator
Station Type Date Time Source
KMVN METAR 2021/09/27 07:56 UTC NOAA

KMVN 270756Z AUTO 00000KT 10SM CLR 16/12 A2999 RMK AO2 SLP155 T01610122


Station Type Date Time Source
KMVN Decoded METAR 2021/09/27 07:56 UTC NOAA

Mount Vernon, Mount Vernon Airport, IL, United States (KMVN) 38-19N 088-52W
Sep 27, 2021 - 03:56 AM EDT / 2021.09.27 0756 UTC
Wind: Calm:0
Visibility: 10 mile(s):0
Sky conditions: clear
Temperature: 61.0 F (16.1 C)
Dew Point: 54.0 F (12.2 C)
Relative Humidity: 77%
Pressure (altimeter): 29.99 in. Hg (1015 hPa)
ob: KMVN 270756Z AUTO 00000KT 10SM CLR 16/12 A2999 RMK AO2 SLP155 T01610122
cycle: 8

Station Type Date Time Source
KMVN TAF 2021/09/27 06:21 UTC NOAA

TAF KMVN 270520Z 2706/2806 20007KT P6SM SKC WS020/23040KT
FM271400 21014G22KT P6SM SKC
FM280000 20007KT P6SM SKC

Example: see airport list